KFOT - Fortuna, California, USA
Updated: Sun, 30-Apr-2017 10:55pm PDT
Overcast
Overcast
 Wind from WNW
Wind: WNW 6 mph , 9 km/h
Temperature: 50°F , 10°C
Wind Chill: 48°F , 9°C
Dew Point: 48°F , 9°C
Humidity: 94%
Barometer: 30.31 inHg , 1026.4 hPa
Clouds: Overcast
Visibility: 10 miles , 16 km
Cloud details: Overcast 900 ft
2017/05/01 05:55 KFOT 010555Z AUTO 30005KT 10SM OVC009 10/09 A3031 RMK AO1

Metar display script from Saratoga-Weather.org